createdAt,value
2023-03-12T00:00:29.041Z,77.50
2023-03-12T00:03:35.235Z,77.60
2023-03-12T00:06:39.269Z,77.60
2023-03-12T00:09:47.222Z,77.60
2023-03-12T00:12:51.286Z,77.70
2023-03-12T00:15:57.251Z,77.70
2023-03-12T00:19:01.224Z,77.70
2023-03-12T00:22:07.206Z,77.70
2023-03-12T00:25:17.207Z,77.70
2023-03-12T00:28:23.263Z,77.70
2023-03-12T00:31:29.698Z,77.80
2023-03-12T00:34:35.698Z,77.70
2023-03-12T00:37:40.361Z,77.70
2023-03-12T00:40:48.493Z,77.80
2023-03-12T00:43:53.494Z,77.80
2023-03-12T00:46:59.474Z,77.80
2023-03-12T00:50:03.471Z,77.80
2023-03-12T00:53:09.420Z,77.80
2023-03-12T00:56:15.627Z,77.90
2023-03-12T00:59:21.808Z,78.00
2023-03-12T01:02:25.963Z,78.00
2023-03-12T01:05:36.985Z,78.00
2023-03-12T01:08:41.248Z,78.00
2023-03-12T01:11:48.989Z,78.00
2023-03-12T01:14:52.878Z,78.00
2023-03-12T01:17:59.051Z,78.00
2023-03-12T01:21:03.445Z,78.00
2023-03-12T01:24:10.005Z,78.00
2023-03-12T01:27:15.874Z,78.10
2023-03-12T01:30:23.086Z,78.10
2023-03-12T01:33:27.094Z,78.10
2023-03-12T01:36:33.111Z,78.10
2023-03-12T01:39:37.220Z,78.20
2023-03-12T01:42:45.101Z,78.10
2023-03-12T01:46:05.088Z,78.20
2023-03-12T01:49:14.601Z,78.20
2023-03-12T01:52:23.424Z,78.20
2023-03-12T01:55:32.316Z,78.20
2023-03-12T01:58:42.036Z,78.30
2023-03-12T02:01:49.166Z,78.30
2023-03-12T02:05:06.101Z,78.20
2023-03-12T02:08:12.593Z,78.30
2023-03-12T02:11:17.015Z,78.30
2023-03-12T02:14:25.126Z,78.40
2023-03-12T02:17:29.458Z,78.40
2023-03-12T02:20:41.647Z,78.40
2023-03-12T02:23:51.211Z,78.40
2023-03-12T02:27:00.114Z,78.40
2023-03-12T02:30:05.232Z,78.40
2023-03-12T02:33:14.476Z,78.40
2023-03-12T02:36:18.424Z,78.50
2023-03-12T02:39:24.605Z,78.40
2023-03-12T02:42:33.094Z,78.50
2023-03-12T02:45:38.391Z,78.50
2023-03-12T02:48:44.596Z,79.10
2023-03-12T02:51:49.011Z,78.60
2023-03-12T02:54:54.938Z,78.60
2023-03-12T02:58:01.112Z,78.50
2023-03-12T03:01:09.059Z,78.60
2023-03-12T03:04:13.723Z,78.50
2023-03-12T03:07:19.761Z,78.60
2023-03-12T03:10:23.717Z,78.50
2023-03-12T03:13:31.714Z,78.60
2023-03-12T03:16:36.018Z,78.60
2023-03-12T03:19:41.912Z,78.60
2023-03-12T03:22:46.074Z,78.60
2023-03-12T03:25:52.506Z,78.50
2023-03-12T03:28:58.372Z,78.50
2023-03-12T03:32:04.728Z,78.50
2023-03-12T03:35:09.533Z,78.50
2023-03-12T03:38:15.737Z,78.60
2023-03-12T03:41:20.844Z,78.50
2023-03-12T03:44:29.894Z,78.60
2023-03-12T03:47:33.883Z,78.60
2023-03-12T03:50:40.654Z,78.60
2023-03-12T03:53:45.515Z,78.50
2023-03-12T03:56:51.709Z,78.50
2023-03-12T03:59:58.278Z,78.70
2023-03-12T04:03:04.381Z,78.70
2023-03-12T04:06:09.790Z,78.60
2023-03-12T04:09:16.133Z,78.60
2023-03-12T04:12:20.312Z,78.60
2023-03-12T04:15:28.403Z,78.60
2023-03-12T04:18:32.659Z,78.60
2023-03-12T04:21:40.954Z,78.50
2023-03-12T04:24:45.449Z,78.60
2023-03-12T04:27:52.048Z,78.50
2023-03-12T04:31:00.709Z,78.60
2023-03-12T04:34:14.301Z,78.50
2023-03-12T04:37:19.425Z,78.50
2023-03-12T04:40:26.027Z,78.50
2023-03-12T04:43:35.893Z,78.60
2023-03-12T04:46:44.874Z,78.60
2023-03-12T04:49:52.631Z,78.60
2023-03-12T04:52:58.771Z,79.10
2023-03-12T04:56:03.384Z,78.60
2023-03-12T04:59:11.393Z,78.50
2023-03-12T05:02:18.707Z,79.10
2023-03-12T05:05:25.160Z,78.40
2023-03-12T05:08:29.333Z,78.40
2023-03-12T05:11:35.447Z,78.50
2023-03-12T05:14:39.878Z,78.50
2023-03-12T05:17:49.070Z,78.50
2023-03-12T05:21:00.494Z,78.50
2023-03-12T05:24:07.043Z,78.50
2023-03-12T05:27:11.250Z,78.50
2023-03-12T05:30:18.421Z,78.40
2023-03-12T05:33:24.834Z,78.40
2023-03-12T05:36:31.172Z,78.40
2023-03-12T05:39:35.191Z,78.50
2023-03-12T05:42:44.280Z,78.40
2023-03-12T05:45:48.750Z,78.40
2023-03-12T05:48:56.901Z,78.40
2023-03-12T05:52:01.276Z,78.40
2023-03-12T05:55:09.050Z,78.30
2023-03-12T05:58:13.313Z,78.30
2023-03-12T06:01:22.729Z,78.40
2023-03-12T06:04:28.870Z,78.40
2023-03-12T06:07:34.742Z,78.30
2023-03-12T06:10:40.281Z,78.30
2023-03-12T06:13:46.505Z,78.30
2023-03-12T06:16:50.475Z,78.30
2023-03-12T06:19:59.144Z,78.30
2023-03-12T06:23:03.174Z,78.30
2023-03-12T06:26:12.023Z,78.20
2023-03-12T06:29:16.370Z,78.30
2023-03-12T06:32:22.876Z,78.20
2023-03-12T06:35:28.690Z,78.20
2023-03-12T06:38:35.104Z,78.20
2023-03-12T06:41:40.844Z,78.20
2023-03-12T06:44:46.924Z,78.20
2023-03-12T06:47:51.138Z,78.30
2023-03-12T06:50:59.131Z,78.20
2023-03-12T06:54:03.020Z,78.20
2023-03-12T06:57:08.911Z,78.30
2023-03-12T07:00:14.499Z,78.30
2023-03-12T07:03:20.662Z,78.20
2023-03-12T07:06:27.028Z,78.20
2023-03-12T07:09:32.924Z,78.20
2023-03-12T07:12:36.971Z,78.30
2023-03-12T07:15:44.477Z,78.30
2023-03-12T07:18:48.523Z,78.30
2023-03-12T07:21:56.317Z,78.30
2023-03-12T07:25:00.179Z,78.30
2023-03-12T07:28:06.949Z,78.30
2023-03-12T07:31:10.938Z,78.40
2023-03-12T07:34:17.446Z,78.40
2023-03-12T07:37:23.547Z,78.40
2023-03-12T07:40:30.207Z,78.40
2023-03-12T07:43:34.392Z,78.40
2023-03-12T07:46:40.596Z,78.50
2023-03-12T07:49:44.569Z,78.50
2023-03-12T07:52:52.762Z,78.50
2023-03-12T07:55:56.840Z,78.60
2023-03-12T07:59:03.160Z,78.60
2023-03-12T08:02:08.373Z,78.70
2023-03-12T08:05:14.544Z,78.70
2023-03-12T08:08:20.946Z,78.70
2023-03-12T08:11:26.888Z,78.80
2023-03-12T08:14:31.305Z,78.80
2023-03-12T08:17:37.271Z,78.90
2023-03-12T08:20:41.340Z,78.90
2023-03-12T08:23:49.948Z,79.00
2023-03-12T08:26:53.869Z,79.00
2023-03-12T08:29:59.999Z,79.00
2023-03-12T08:33:03.903Z,79.10
2023-03-12T08:36:10.410Z,79.10
2023-03-12T08:39:16.378Z,79.20
2023-03-12T08:42:22.330Z,79.20
2023-03-12T08:45:26.215Z,79.20
2023-03-12T08:48:33.651Z,79.30
2023-03-12T08:51:37.568Z,79.30
2023-03-12T08:54:45.765Z,79.30
2023-03-12T08:57:49.870Z,79.30
2023-03-12T09:00:56.867Z,79.40
2023-03-12T09:04:02.017Z,79.50
2023-03-12T09:07:09.144Z,79.50
2023-03-12T09:10:15.294Z,79.50
2023-03-12T09:13:21.215Z,79.60
2023-03-12T09:16:25.403Z,79.60
2023-03-12T09:19:31.576Z,79.70
2023-03-12T09:22:36.315Z,79.70
2023-03-12T09:25:47.386Z,79.80
2023-03-12T09:28:51.493Z,79.90
2023-03-12T09:31:57.641Z,79.90
2023-03-12T09:35:01.555Z,79.90
2023-03-12T09:38:07.769Z,79.90
2023-03-12T09:41:21.607Z,80.00
2023-03-12T09:44:33.508Z,80.10
2023-03-12T09:47:43.278Z,80.10
2023-03-12T09:50:51.982Z,80.10
2023-03-12T09:53:59.659Z,80.30
2023-03-12T09:57:15.963Z,80.30
2023-03-12T10:00:21.785Z,80.30
2023-03-12T10:03:57.023Z,80.30
2023-03-12T10:07:09.422Z,80.20
2023-03-12T10:10:37.968Z,80.30
2023-03-12T10:14:06.580Z,80.40
2023-03-12T10:17:29.466Z,80.50
2023-03-12T10:20:52.505Z,80.60
2023-03-12T10:24:11.999Z,80.60
2023-03-12T10:27:18.223Z,80.70
2023-03-12T10:30:28.484Z,80.70
2023-03-12T10:33:42.578Z,80.80
2023-03-12T10:36:50.840Z,81.50
2023-03-12T10:39:56.877Z,80.90
2023-03-12T10:43:03.916Z,81.00
2023-03-12T10:46:34.031Z,81.10
2023-03-12T10:49:40.602Z,81.20
2023-03-12T10:52:45.358Z,81.20
2023-03-12T10:56:01.605Z,81.20
2023-03-12T10:59:21.514Z,81.40
2023-03-12T11:02:35.735Z,81.40
2023-03-12T11:05:50.313Z,81.50
2023-03-12T11:09:17.025Z,81.50
2023-03-12T11:12:30.205Z,81.60
2023-03-12T11:15:41.168Z,81.70
2023-03-12T11:18:56.331Z,81.70
2023-03-12T11:22:04.071Z,81.90
2023-03-12T11:25:21.474Z,81.80
2023-03-12T11:28:33.080Z,81.90
2023-03-12T11:31:44.360Z,81.90
2023-03-12T11:34:53.239Z,82.10
2023-03-12T11:38:04.413Z,82.00
2023-03-12T11:41:34.582Z,81.90
2023-03-12T11:44:49.358Z,82.10
2023-03-12T11:48:05.144Z,82.00
2023-03-12T11:51:24.673Z,82.20
2023-03-12T11:54:51.991Z,82.30
2023-03-12T11:58:10.271Z,82.30
2023-03-12T12:01:23.311Z,82.30
2023-03-12T12:04:51.770Z,82.40
2023-03-12T12:08:14.055Z,82.60
2023-03-12T12:11:23.452Z,82.50
2023-03-12T12:14:41.281Z,82.50
2023-03-12T12:17:56.892Z,82.60
2023-03-12T12:21:07.862Z,82.70
2023-03-12T12:24:25.588Z,82.80
2023-03-12T12:27:35.028Z,82.90
2023-03-12T12:30:52.737Z,82.90
2023-03-12T12:34:21.444Z,83.10
2023-03-12T12:37:36.077Z,83.10
2023-03-12T12:40:49.363Z,83.20
2023-03-12T12:43:57.427Z,83.20
2023-03-12T12:47:12.578Z,83.30
2023-03-12T12:50:21.332Z,83.30
2023-03-12T12:53:32.252Z,83.40
2023-03-12T12:56:46.178Z,83.50
2023-03-12T13:00:10.430Z,83.60
2023-03-12T13:03:17.363Z,83.70
2023-03-12T13:06:23.336Z,83.60
2023-03-12T13:09:42.844Z,83.70
2023-03-12T13:12:54.968Z,83.90
2023-03-12T13:16:23.300Z,83.80
2023-03-12T13:19:29.653Z,84.00
2023-03-12T13:22:57.624Z,83.80
2023-03-12T13:26:11.809Z,84.10
2023-03-12T13:29:37.746Z,84.10
2023-03-12T13:33:12.378Z,84.10
2023-03-12T13:36:25.009Z,84.20
2023-03-12T13:39:33.715Z,84.20
2023-03-12T13:42:41.250Z,84.10
2023-03-12T13:46:04.481Z,84.30
2023-03-12T13:49:16.653Z,84.40
2023-03-12T13:52:28.333Z,84.40
2023-03-12T13:55:34.172Z,84.40
2023-03-12T13:58:43.873Z,84.40
2023-03-12T14:01:52.753Z,84.50
2023-03-12T14:05:06.346Z,84.60
2023-03-12T14:08:22.318Z,84.60
2023-03-12T14:11:44.791Z,84.60
2023-03-12T14:15:08.982Z,84.70
2023-03-12T14:18:22.298Z,84.80
2023-03-12T14:21:33.245Z,84.60
2023-03-12T14:24:43.453Z,84.60
2023-03-12T14:27:48.769Z,84.60
2023-03-12T14:31:00.967Z,84.60
2023-03-12T14:34:11.359Z,84.60
2023-03-12T14:37:21.539Z,84.60
2023-03-12T14:40:31.891Z,84.60
2023-03-12T14:43:38.119Z,84.70
2023-03-12T14:46:56.918Z,84.70
2023-03-12T14:50:05.099Z,84.70
2023-03-12T14:53:14.377Z,84.60
2023-03-12T14:56:28.703Z,84.70
2023-03-12T14:59:34.466Z,84.80
2023-03-12T15:02:40.594Z,84.80
2023-03-12T15:05:49.565Z,84.80
2023-03-12T15:08:56.173Z,84.90
2023-03-12T15:12:02.971Z,84.90
2023-03-12T15:15:12.197Z,85.00
2023-03-12T15:18:20.181Z,85.00
2023-03-12T15:21:28.612Z,85.00
2023-03-12T15:24:40.046Z,85.00
2023-03-12T15:27:46.408Z,85.10
2023-03-12T15:31:07.627Z,85.00
2023-03-12T15:34:31.415Z,85.20
2023-03-12T15:37:40.472Z,85.10
2023-03-12T15:40:50.930Z,85.10
2023-03-12T15:43:57.952Z,85.10
2023-03-12T15:47:07.827Z,85.10
2023-03-12T15:50:20.016Z,85.20
2023-03-12T15:53:30.276Z,85.10
2023-03-12T15:56:36.505Z,85.00
2023-03-12T15:59:42.537Z,84.90
2023-03-12T16:02:50.860Z,84.90
2023-03-12T16:05:58.605Z,84.90
2023-03-12T16:09:05.598Z,84.80
2023-03-12T16:12:12.284Z,84.80
2023-03-12T16:15:19.132Z,84.70
2023-03-12T16:18:25.846Z,84.80
2023-03-12T16:21:29.760Z,84.70
2023-03-12T16:24:38.136Z,84.70
2023-03-12T16:27:48.773Z,84.60
2023-03-12T16:30:55.545Z,84.60
2023-03-12T16:33:59.638Z,84.50
2023-03-12T16:37:05.962Z,84.50
2023-03-12T16:40:16.341Z,84.40
2023-03-12T16:43:29.468Z,84.40
2023-03-12T16:46:33.862Z,84.30
2023-03-12T16:49:40.489Z,84.20
2023-03-12T16:52:46.275Z,84.20
2023-03-12T16:55:56.648Z,84.10
2023-03-12T16:59:04.849Z,84.10
2023-03-12T17:02:17.825Z,84.00
2023-03-12T17:05:22.132Z,83.90
2023-03-12T17:08:28.117Z,83.80
2023-03-12T17:11:34.036Z,83.80
2023-03-12T17:14:40.234Z,83.70
2023-03-12T17:17:44.714Z,83.70
2023-03-12T17:20:51.457Z,83.50
2023-03-12T17:23:55.351Z,83.50
2023-03-12T17:27:03.936Z,83.50
2023-03-12T17:30:09.033Z,83.40
2023-03-12T17:33:17.350Z,83.40
2023-03-12T17:36:21.224Z,83.40
2023-03-12T17:39:27.212Z,83.40
2023-03-12T17:42:34.097Z,83.30
2023-03-12T17:45:40.024Z,83.20
2023-03-12T17:48:43.690Z,83.10
2023-03-12T17:51:49.616Z,83.10
2023-03-12T17:54:53.480Z,83.10
2023-03-12T17:58:02.632Z,83.10
2023-03-12T18:01:06.757Z,83.00
2023-03-12T18:04:12.634Z,83.00
2023-03-12T18:07:16.291Z,83.00
2023-03-12T18:10:22.863Z,83.00
2023-03-12T18:13:28.759Z,83.00
2023-03-12T18:16:34.716Z,83.00
2023-03-12T18:19:38.630Z,83.00
2023-03-12T18:22:44.801Z,83.00
2023-03-12T18:25:48.765Z,83.00
2023-03-12T18:28:57.714Z,83.00
2023-03-12T18:32:01.634Z,83.00
2023-03-12T18:35:09.134Z,83.00
2023-03-12T18:38:13.320Z,83.10
2023-03-12T18:41:19.270Z,83.10
2023-03-12T18:44:24.897Z,83.10
2023-03-12T18:47:30.851Z,83.10
2023-03-12T18:50:34.500Z,83.00
2023-03-12T18:53:40.724Z,83.00
2023-03-12T18:56:44.638Z,83.00
2023-03-12T18:59:52.682Z,83.00
2023-03-12T19:02:56.642Z,83.00
2023-03-12T19:06:04.703Z,83.10
2023-03-12T19:09:09.060Z,83.10
2023-03-12T19:12:14.999Z,83.10
2023-03-12T19:15:20.573Z,83.10
2023-03-12T19:18:26.775Z,83.00
2023-03-12T19:21:30.740Z,83.00
2023-03-12T19:24:36.915Z,83.00
2023-03-12T19:27:41.102Z,83.10
2023-03-12T19:30:49.196Z,83.10
2023-03-12T19:33:53.552Z,83.10
2023-03-12T19:36:59.467Z,83.10
2023-03-12T19:40:05.191Z,83.20
2023-03-12T19:43:11.083Z,83.10
2023-03-12T19:46:17.027Z,83.00
2023-03-12T19:49:23.638Z,83.10
2023-03-12T19:52:27.574Z,83.00
2023-03-12T19:55:33.684Z,83.10
2023-03-12T19:58:37.616Z,83.10
2023-03-12T20:01:45.412Z,83.10
2023-03-12T20:04:49.344Z,83.20
2023-03-12T20:07:55.315Z,83.20
2023-03-12T20:11:03.552Z,83.20
2023-03-12T20:14:09.543Z,83.20
2023-03-12T20:17:15.415Z,83.10
2023-03-12T20:20:21.736Z,83.10
2023-03-12T20:23:26.099Z,83.10
2023-03-12T20:26:35.106Z,83.10
2023-03-12T20:29:39.403Z,82.70
2023-03-12T20:32:47.499Z,83.20
2023-03-12T20:35:51.486Z,83.30
2023-03-12T20:38:57.367Z,83.30
2023-03-12T20:42:01.219Z,83.30
2023-03-12T20:45:08.949Z,83.30
2023-03-12T20:48:14.818Z,83.40
2023-03-12T20:51:20.864Z,83.40
2023-03-12T20:54:24.789Z,83.40
2023-03-12T20:57:30.675Z,83.40
2023-03-12T21:00:34.565Z,83.40
2023-03-12T21:03:42.930Z,83.40
2023-03-12T21:06:47.058Z,83.30
2023-03-12T21:09:52.907Z,83.30
2023-03-12T21:12:57.235Z,83.40
2023-03-12T21:16:05.861Z,83.40
2023-03-12T21:19:12.209Z,83.40
2023-03-12T21:22:18.082Z,83.40
2023-03-12T21:25:21.894Z,83.40
2023-03-12T21:28:28.032Z,83.40
2023-03-12T21:31:32.068Z,83.30
2023-03-12T21:34:39.927Z,83.30
2023-03-12T21:37:43.941Z,83.40
2023-03-12T21:40:49.855Z,83.40
2023-03-12T21:43:53.530Z,83.50
2023-03-12T21:46:59.884Z,83.40
2023-03-12T21:50:06.497Z,83.30
2023-03-12T21:53:23.310Z,83.40
2023-03-12T21:56:29.616Z,83.40
2023-03-12T21:59:35.577Z,83.40
2023-03-12T22:02:39.194Z,83.40
2023-03-12T22:05:52.366Z,83.40
2023-03-12T22:08:56.550Z,83.40
2023-03-12T22:12:02.909Z,83.40
2023-03-12T22:15:09.152Z,83.40
2023-03-12T22:18:15.064Z,83.40
2023-03-12T22:21:21.810Z,83.40
2023-03-12T22:24:27.993Z,83.30
2023-03-12T22:27:32.954Z,83.30
2023-03-12T22:30:38.841Z,83.30
2023-03-12T22:33:42.682Z,83.40
2023-03-12T22:36:50.720Z,83.40
2023-03-12T22:39:57.629Z,83.30
2023-03-12T22:43:03.748Z,83.30
2023-03-12T22:46:07.960Z,83.40
2023-03-12T22:49:14.133Z,83.30
2023-03-12T22:52:20.198Z,83.40
2023-03-12T22:55:26.762Z,83.40
2023-03-12T22:58:31.106Z,83.40
2023-03-12T23:01:37.591Z,83.40
2023-03-12T23:04:41.622Z,83.40
2023-03-12T23:07:49.769Z,83.40
2023-03-12T23:10:54.818Z,83.40
2023-03-12T23:14:00.686Z,83.40
2023-03-12T23:17:06.829Z,83.50
2023-03-12T23:20:14.309Z,83.40
2023-03-12T23:23:20.144Z,83.40
2023-03-12T23:26:28.172Z,83.50
2023-03-12T23:29:32.124Z,83.50
2023-03-12T23:32:38.070Z,83.50
2023-03-12T23:35:42.262Z,83.40
2023-03-12T23:38:51.402Z,83.40
2023-03-12T23:41:55.752Z,83.50
2023-03-12T23:45:01.853Z,83.50
2023-03-12T23:48:07.281Z,84.10
2023-03-12T23:51:15.264Z,83.50
2023-03-12T23:54:21.371Z,83.50
2023-03-12T23:57:27.474Z,83.50
